createdAt,value
2019-02-14T00:00:53.502Z,10.48
2019-02-14T00:03:27.027Z,10.49
2019-02-14T00:06:00.585Z,10.59
2019-02-14T00:08:34.188Z,10.56
2019-02-14T00:11:07.806Z,10.56
2019-02-14T00:13:41.253Z,10.57
2019-02-14T00:16:14.711Z,10.55
2019-02-14T00:18:48.059Z,10.52
2019-02-14T00:21:21.578Z,10.48
2019-02-14T00:23:54.947Z,10.59
2019-02-14T00:26:28.427Z,10.58
2019-02-14T00:29:01.863Z,10.59
2019-02-14T00:31:35.257Z,10.57
2019-02-14T00:34:08.824Z,10.55
2019-02-14T00:36:42.312Z,10.57
2019-02-14T00:39:15.732Z,10.63
2019-02-14T00:41:49.111Z,10.58
2019-02-14T00:44:22.460Z,10.55
2019-02-14T00:46:55.980Z,10.56
2019-02-14T00:49:29.500Z,10.57
2019-02-14T00:52:03.070Z,10.56
2019-02-14T00:54:36.423Z,10.62
2019-02-14T00:57:09.872Z,10.68
2019-02-14T00:59:43.358Z,10.61
2019-02-14T01:02:16.935Z,10.66
2019-02-14T01:04:50.357Z,10.63
2019-02-14T01:07:23.817Z,10.57
2019-02-14T01:09:57.241Z,10.62
2019-02-14T01:12:30.700Z,10.66
2019-02-14T01:15:06.838Z,10.70
2019-02-14T01:17:40.210Z,10.70
2019-02-14T01:20:13.566Z,10.54
2019-02-14T01:22:47.098Z,10.51
2019-02-14T01:25:20.544Z,10.49
2019-02-14T01:27:53.967Z,10.55
2019-02-14T01:30:27.421Z,10.53
2019-02-14T01:33:00.773Z,10.56
2019-02-14T01:35:41.808Z,10.54
2019-02-14T01:38:09.557Z,10.53
2019-02-14T01:40:43.044Z,10.53
2019-02-14T01:43:16.493Z,10.54
2019-02-14T01:45:49.942Z,10.52
2019-02-14T01:48:23.357Z,10.51
2019-02-14T01:50:56.787Z,10.47
2019-02-14T01:53:30.272Z,10.49
2019-02-14T01:56:03.698Z,10.45
2019-02-14T01:58:37.122Z,10.47
2019-02-14T02:01:10.534Z,10.47
2019-02-14T02:03:43.994Z,10.47
2019-02-14T02:06:17.374Z,10.49
2019-02-14T02:08:50.942Z,10.45
2019-02-14T02:11:24.390Z,10.38
2019-02-14T02:13:57.945Z,10.33
2019-02-14T02:16:31.374Z,10.33
2019-02-14T02:19:04.972Z,10.27
2019-02-14T02:21:38.486Z,10.25
2019-02-14T02:24:12.144Z,10.23
2019-02-14T02:26:45.500Z,10.18
2019-02-14T02:29:18.934Z,10.13
2019-02-14T02:31:52.506Z,10.07
2019-02-14T02:34:25.931Z,10.01
2019-02-14T02:36:59.356Z,9.97
2019-02-14T02:39:32.840Z,9.88
2019-02-14T02:42:06.244Z,9.85
2019-02-14T02:44:39.623Z,9.83
2019-02-14T02:47:13.038Z,9.76
2019-02-14T02:49:46.426Z,9.64
2019-02-14T02:52:19.944Z,9.62
2019-02-14T02:54:53.349Z,9.64
2019-02-14T02:57:26.821Z,9.56
2019-02-14T03:00:00.317Z,9.52
2019-02-14T03:02:33.768Z,9.42
2019-02-14T03:05:10.103Z,9.45
2019-02-14T03:07:43.500Z,9.41
2019-02-14T03:10:16.851Z,9.36
2019-02-14T03:12:50.187Z,9.29
2019-02-14T03:15:23.607Z,9.26
2019-02-14T03:17:56.988Z,9.23
2019-02-14T03:20:30.450Z,9.25
2019-02-14T03:23:03.860Z,9.19
2019-02-14T03:25:37.239Z,9.18
2019-02-14T03:28:10.642Z,9.17
2019-02-14T03:30:44.030Z,9.17
2019-02-14T03:33:17.448Z,9.14
2019-02-14T03:35:50.922Z,9.02
2019-02-14T03:38:24.272Z,9.00
2019-02-14T03:40:57.691Z,8.99
2019-02-14T03:43:31.086Z,9.01
2019-02-14T03:46:04.623Z,9.03
2019-02-14T03:48:37.956Z,8.92
2019-02-14T03:51:11.338Z,8.88
2019-02-14T03:53:44.702Z,8.89
2019-02-14T03:56:18.100Z,8.87
2019-02-14T03:58:51.423Z,8.85
2019-02-14T04:01:24.838Z,8.82
2019-02-14T04:03:58.213Z,8.76
2019-02-14T04:06:31.648Z,8.77
2019-02-14T04:09:07.516Z,8.77
2019-02-14T04:11:41.032Z,8.74
2019-02-14T04:14:14.432Z,8.70
2019-02-14T04:16:47.790Z,8.66
2019-02-14T04:19:21.118Z,8.53
2019-02-14T04:21:54.544Z,8.49
2019-02-14T04:24:27.966Z,8.47
2019-02-14T04:27:01.477Z,8.40
2019-02-14T04:29:34.819Z,8.29
2019-02-14T04:32:08.205Z,8.21
2019-02-14T04:34:41.598Z,8.09
2019-02-14T04:37:15.038Z,8.01
2019-02-14T04:39:48.670Z,7.89
2019-02-14T04:42:22.118Z,7.75
2019-02-14T04:44:55.514Z,7.67
2019-02-14T04:47:28.979Z,7.63
2019-02-14T04:50:02.406Z,7.61
2019-02-14T04:52:35.794Z,7.53
2019-02-14T04:55:10.575Z,7.52
2019-02-14T04:57:44.380Z,7.52
2019-02-14T05:00:17.776Z,7.56
2019-02-14T05:02:51.154Z,7.46
2019-02-14T05:05:24.644Z,7.46
2019-02-14T05:07:58.066Z,7.41
2019-02-14T05:10:31.462Z,7.25
2019-02-14T05:13:04.924Z,7.25
2019-02-14T05:15:38.381Z,7.28
2019-02-14T05:18:11.809Z,7.24
2019-02-14T05:20:45.171Z,7.12
2019-02-14T05:23:18.607Z,7.11
2019-02-14T05:25:51.999Z,7.05
2019-02-14T05:28:25.396Z,6.69
2019-02-14T05:30:58.820Z,6.83
2019-02-14T05:33:32.178Z,6.90
2019-02-14T05:36:05.566Z,6.92
2019-02-14T05:38:38.931Z,6.94
2019-02-14T05:41:12.329Z,6.94
2019-02-14T05:43:45.764Z,6.90
2019-02-14T05:46:19.106Z,6.90
2019-02-14T05:48:52.543Z,6.79
2019-02-14T05:51:25.874Z,6.79
2019-02-14T05:53:59.240Z,6.70
2019-02-14T05:56:32.705Z,6.62
2019-02-14T05:59:06.097Z,6.54
2019-02-14T06:01:39.614Z,6.52
2019-02-14T06:04:13.050Z,6.44
2019-02-14T06:06:46.388Z,6.47
2019-02-14T06:09:19.841Z,6.51
2019-02-14T06:11:53.289Z,6.50
2019-02-14T06:14:26.708Z,6.54
2019-02-14T06:17:00.047Z,6.49
2019-02-14T06:19:33.422Z,6.40
2019-02-14T06:22:06.829Z,6.38
2019-02-14T06:24:40.233Z,6.41
2019-02-14T06:27:14.034Z,6.42
2019-02-14T06:29:47.386Z,6.44
2019-02-14T06:32:20.891Z,6.42
2019-02-14T06:34:54.282Z,6.37
2019-02-14T06:37:27.876Z,6.34
2019-02-14T06:40:01.220Z,6.32
2019-02-14T06:42:34.714Z,6.30
2019-02-14T06:45:13.415Z,6.25
2019-02-14T06:47:46.934Z,6.23
2019-02-14T06:50:20.353Z,6.22
2019-02-14T06:52:53.780Z,6.11
2019-02-14T06:55:28.839Z,6.13
2019-02-14T06:58:02.213Z,6.13
2019-02-14T07:00:35.677Z,6.14
2019-02-14T07:03:09.055Z,6.13
2019-02-14T07:05:42.393Z,6.12
2019-02-14T07:08:15.820Z,6.06
2019-02-14T07:10:49.184Z,6.09
2019-02-14T07:13:22.596Z,6.11
2019-02-14T07:15:56.051Z,6.11
2019-02-14T07:18:29.479Z,6.06
2019-02-14T07:21:04.483Z,6.02
2019-02-14T07:23:37.911Z,6.04
2019-02-14T07:26:11.330Z,6.09
2019-02-14T07:28:44.826Z,6.10
2019-02-14T07:31:18.176Z,6.15
2019-02-14T07:33:51.646Z,6.24
2019-02-14T07:36:25.085Z,6.34
2019-02-14T07:38:58.493Z,6.41
2019-02-14T07:41:31.840Z,6.52
2019-02-14T07:44:05.280Z,6.54
2019-02-14T07:46:38.645Z,6.63
2019-02-14T07:49:12.105Z,6.76
2019-02-14T07:51:45.592Z,6.89
2019-02-14T07:54:19.039Z,6.89
2019-02-14T07:56:52.602Z,6.97
2019-02-14T07:59:25.999Z,6.99
2019-02-14T08:01:59.473Z,7.05
2019-02-14T08:04:32.908Z,7.17
2019-02-14T08:07:06.227Z,7.29
2019-02-14T08:09:39.594Z,7.44
2019-02-14T08:12:12.997Z,7.66
2019-02-14T08:14:46.439Z,7.82
2019-02-14T08:17:19.845Z,7.96
2019-02-14T08:19:53.292Z,7.99
2019-02-14T08:22:26.678Z,8.13
2019-02-14T08:25:01.573Z,8.29
2019-02-14T08:27:34.871Z,8.42
2019-02-14T08:30:15.197Z,8.43
2019-02-14T08:32:48.615Z,8.66
2019-02-14T08:35:22.066Z,8.81
2019-02-14T08:37:55.397Z,8.89
2019-02-14T08:40:33.385Z,9.02
2019-02-14T08:43:06.894Z,9.01
2019-02-14T08:45:40.317Z,9.16
2019-02-14T08:48:13.809Z,9.16
2019-02-14T08:50:47.203Z,9.23
2019-02-14T08:53:22.687Z,9.21
2019-02-14T08:55:55.694Z,9.30
2019-02-14T08:58:29.115Z,9.42
2019-02-14T09:01:02.544Z,9.43
2019-02-14T09:03:35.880Z,9.51
2019-02-14T09:06:09.313Z,9.76
2019-02-14T09:08:42.651Z,10.10
2019-02-14T09:11:16.001Z,10.37
2019-02-14T09:13:49.365Z,10.58
2019-02-14T09:16:22.838Z,10.80
2019-02-14T09:18:56.272Z,10.80
2019-02-14T09:21:29.706Z,10.92
2019-02-14T09:24:03.183Z,10.96
2019-02-14T09:26:36.627Z,11.27
2019-02-14T09:29:12.710Z,11.64
2019-02-14T09:31:45.197Z,12.00
2019-02-14T09:34:18.785Z,12.00
2019-02-14T09:36:52.191Z,12.15
2019-02-14T09:39:25.727Z,12.22
2019-02-14T09:41:59.162Z,12.40
2019-02-14T09:44:32.531Z,12.98
2019-02-14T09:47:05.957Z,13.57
2019-02-14T09:49:39.394Z,13.63
2019-02-14T09:52:12.740Z,13.84
2019-02-14T09:54:46.700Z,13.85
2019-02-14T09:57:20.064Z,13.52
2019-02-14T09:59:53.497Z,13.30
2019-02-14T10:02:26.821Z,12.94
2019-02-14T10:05:01.662Z,12.77
2019-02-14T10:07:34.986Z,12.49
2019-02-14T10:10:11.681Z,12.35
2019-02-14T10:12:45.103Z,12.25
2019-02-14T10:15:18.545Z,12.15
2019-02-14T10:17:51.954Z,11.96
2019-02-14T10:20:25.313Z,11.96
2019-02-14T10:22:58.640Z,12.02
2019-02-14T10:25:32.142Z,11.91
2019-02-14T10:28:05.545Z,11.77
2019-02-14T10:30:40.244Z,11.78
2019-02-14T10:33:13.711Z,11.84
2019-02-14T10:35:47.105Z,11.82
2019-02-14T10:38:22.607Z,11.91
2019-02-14T10:40:55.581Z,11.94
2019-02-14T10:43:28.950Z,12.01
2019-02-14T10:46:02.490Z,12.06
2019-02-14T10:48:35.946Z,12.36
2019-02-14T10:51:09.350Z,12.55
2019-02-14T10:53:42.802Z,12.51
2019-02-14T10:56:16.197Z,12.45
2019-02-14T10:58:49.596Z,12.59
2019-02-14T11:01:23.028Z,12.66
2019-02-14T11:03:56.353Z,12.72
2019-02-14T11:06:29.777Z,12.72
2019-02-14T11:09:04.881Z,12.76
2019-02-14T11:11:38.359Z,12.60
2019-02-14T11:14:11.780Z,12.79
2019-02-14T11:16:45.209Z,12.77
2019-02-14T11:19:18.542Z,12.94
2019-02-14T11:21:52.167Z,12.94
2019-02-14T11:24:25.640Z,12.94
2019-02-14T11:26:59.116Z,12.97
2019-02-14T11:29:32.464Z,12.92
2019-02-14T11:32:05.912Z,12.96
2019-02-14T11:34:39.287Z,12.96
2019-02-14T11:37:12.651Z,12.89
2019-02-14T11:39:46.122Z,12.92
2019-02-14T11:42:19.498Z,13.01
2019-02-14T11:44:52.941Z,13.17
2019-02-14T11:47:26.469Z,13.10
2019-02-14T11:49:59.840Z,13.36
2019-02-14T11:52:33.204Z,13.71
2019-02-14T11:55:08.208Z,14.69
2019-02-14T11:57:41.666Z,14.51
2019-02-14T12:00:25.871Z,14.32
2019-02-14T12:02:59.201Z,14.32
2019-02-14T12:05:32.628Z,14.05
2019-02-14T12:08:06.029Z,14.11
2019-02-14T12:10:39.449Z,13.94
2019-02-14T12:13:12.783Z,13.86
2019-02-14T12:15:46.243Z,13.90
2019-02-14T12:18:19.678Z,14.13
2019-02-14T12:20:53.118Z,14.28
2019-02-14T12:23:26.444Z,14.39
2019-02-14T12:25:59.896Z,14.49
2019-02-14T12:28:33.308Z,14.72
2019-02-14T12:31:06.876Z,15.62
2019-02-14T12:33:40.285Z,16.14
2019-02-14T12:36:13.748Z,16.08
2019-02-14T12:38:47.178Z,16.09
2019-02-14T12:41:20.633Z,15.68
2019-02-14T12:43:53.972Z,15.43
2019-02-14T12:46:27.445Z,15.37
2019-02-14T12:49:00.916Z,15.05
2019-02-14T12:51:34.364Z,14.99
2019-02-14T12:54:07.690Z,14.86
2019-02-14T12:56:41.140Z,14.65
2019-02-14T12:59:14.527Z,14.51
2019-02-14T13:01:47.878Z,14.37
2019-02-14T13:04:21.211Z,14.40
2019-02-14T13:06:54.640Z,14.45
2019-02-14T13:09:28.089Z,14.61
2019-02-14T13:12:01.508Z,14.69
2019-02-14T13:14:34.839Z,14.64
2019-02-14T13:17:08.221Z,14.62
2019-02-14T13:19:41.623Z,14.42
2019-02-14T13:22:14.982Z,14.48
2019-02-14T13:24:48.311Z,14.53
2019-02-14T13:27:21.713Z,14.41
2019-02-14T13:29:55.172Z,14.56
2019-02-14T13:32:28.574Z,14.45
2019-02-14T13:35:01.983Z,14.42
2019-02-14T13:37:35.392Z,14.44
2019-02-14T13:40:09.273Z,14.58
2019-02-14T13:42:42.734Z,14.62
2019-02-14T13:45:21.882Z,14.57
2019-02-14T13:47:55.230Z,14.55
2019-02-14T13:50:28.616Z,14.43
2019-02-14T13:53:02.013Z,14.43
2019-02-14T13:55:35.430Z,14.52
2019-02-14T13:58:08.866Z,14.55
2019-02-14T14:00:42.181Z,14.51
2019-02-14T14:03:15.620Z,14.38
2019-02-14T14:05:49.011Z,14.41
2019-02-14T14:08:22.376Z,14.51
2019-02-14T14:10:55.794Z,14.56
2019-02-14T14:13:29.208Z,14.48
2019-02-14T14:16:02.607Z,14.49
2019-02-14T14:18:35.953Z,14.48
2019-02-14T14:21:09.417Z,14.49
2019-02-14T14:23:42.878Z,14.43
2019-02-14T14:26:16.230Z,14.40
2019-02-14T14:28:49.552Z,14.22
2019-02-14T14:31:23.025Z,14.25
2019-02-14T14:33:56.408Z,14.26
2019-02-14T14:36:29.762Z,14.27
2019-02-14T14:39:03.166Z,14.24
2019-02-14T14:41:36.619Z,14.24
2019-02-14T14:44:14.713Z,14.17
2019-02-14T14:46:48.226Z,14.21
2019-02-14T14:49:21.673Z,14.22
2019-02-14T14:51:55.085Z,14.17
2019-02-14T14:54:28.610Z,14.18
2019-02-14T14:57:02.396Z,14.13
2019-02-14T14:59:35.712Z,14.06
2019-02-14T15:02:09.134Z,14.04
2019-02-14T15:04:42.457Z,13.99
2019-02-14T15:07:15.890Z,13.92
2019-02-14T15:09:57.297Z,13.93
2019-02-14T15:12:24.431Z,13.94
2019-02-14T15:14:57.807Z,13.99
2019-02-14T15:17:33.177Z,13.99
2019-02-14T15:20:10.723Z,13.92
2019-02-14T15:22:44.151Z,13.81
2019-02-14T15:25:17.502Z,13.76
2019-02-14T15:27:50.960Z,13.74
2019-02-14T15:30:24.282Z,13.77
2019-02-14T15:32:57.635Z,13.65
2019-02-14T15:35:30.956Z,13.59
2019-02-14T15:38:04.330Z,13.39
2019-02-14T15:40:37.656Z,13.34
2019-02-14T15:43:11.094Z,13.37
2019-02-14T15:45:44.492Z,13.31
2019-02-14T15:48:17.840Z,13.28
2019-02-14T15:50:53.688Z,13.24
2019-02-14T15:53:26.391Z,13.18
2019-02-14T15:55:59.798Z,13.13
2019-02-14T15:58:33.269Z,13.08
2019-02-14T16:01:07.476Z,12.98
2019-02-14T16:03:42.736Z,12.96
2019-02-14T16:06:16.397Z,12.89
2019-02-14T16:08:50.329Z,12.83
2019-02-14T16:11:23.937Z,12.75
2019-02-14T16:13:57.326Z,12.64
2019-02-14T16:16:30.772Z,12.53
2019-02-14T16:19:04.501Z,12.40
2019-02-14T16:21:38.210Z,12.31
2019-02-14T16:24:11.628Z,12.26
2019-02-14T16:26:45.860Z,12.17
2019-02-14T16:29:19.270Z,12.07
2019-02-14T16:31:52.600Z,12.02
2019-02-14T16:34:26.031Z,11.93
2019-02-14T16:36:59.532Z,11.86
2019-02-14T16:39:32.925Z,11.72
2019-02-14T16:42:06.255Z,11.64
2019-02-14T16:44:39.618Z,11.52
2019-02-14T16:47:13.009Z,11.45
2019-02-14T16:49:46.455Z,11.33
2019-02-14T16:52:19.881Z,11.23
2019-02-14T16:54:53.378Z,11.12
2019-02-14T16:57:26.879Z,11.06
2019-02-14T17:00:00.518Z,10.96
2019-02-14T17:02:34.083Z,10.87
2019-02-14T17:05:07.794Z,10.78
2019-02-14T17:07:41.286Z,10.66
2019-02-14T17:10:15.032Z,10.54
2019-02-14T17:12:48.477Z,10.48
2019-02-14T17:15:21.902Z,10.41
2019-02-14T17:17:55.400Z,10.31
2019-02-14T17:20:28.766Z,10.21
2019-02-14T17:23:02.278Z,10.13
2019-02-14T17:25:35.598Z,10.11
2019-02-14T17:28:08.958Z,10.07
2019-02-14T17:30:42.354Z,10.01
2019-02-14T17:33:15.813Z,9.94
2019-02-14T17:35:49.141Z,9.87
2019-02-14T17:38:22.493Z,9.79
2019-02-14T17:40:55.827Z,9.70
2019-02-14T17:43:29.230Z,9.65
2019-02-14T17:46:02.632Z,9.58
2019-02-14T17:48:36.085Z,9.50
2019-02-14T17:51:09.517Z,9.39
2019-02-14T17:53:42.898Z,9.30
2019-02-14T17:56:16.354Z,9.24
2019-02-14T17:58:49.763Z,9.16
2019-02-14T18:01:26.096Z,9.06
2019-02-14T18:03:59.449Z,8.97
2019-02-14T18:06:32.840Z,8.90
2019-02-14T18:09:06.805Z,8.80
2019-02-14T18:11:40.199Z,8.73
2019-02-14T18:14:13.624Z,8.67
2019-02-14T18:16:46.957Z,8.59
2019-02-14T18:19:20.282Z,8.53
2019-02-14T18:21:53.816Z,8.44
2019-02-14T18:24:27.301Z,8.38
2019-02-14T18:27:00.799Z,8.27
2019-02-14T18:29:37.196Z,8.22
2019-02-14T18:32:10.545Z,8.14
2019-02-14T18:34:43.887Z,8.08
2019-02-14T18:37:17.279Z,8.03
2019-02-14T18:39:50.727Z,7.99
2019-02-14T18:42:24.208Z,7.92
2019-02-14T18:44:57.676Z,7.83
2019-02-14T18:47:39.294Z,7.77
2019-02-14T18:50:08.964Z,7.71
2019-02-14T18:52:42.433Z,7.63
2019-02-14T18:55:15.861Z,7.57
2019-02-14T18:57:49.318Z,7.54
2019-02-14T19:00:22.715Z,7.48
2019-02-14T19:02:56.241Z,7.41
2019-02-14T19:05:29.733Z,7.36
2019-02-14T19:08:03.177Z,7.30
2019-02-14T19:10:36.500Z,7.24
2019-02-14T19:13:09.922Z,7.20
2019-02-14T19:15:43.372Z,7.11
2019-02-14T19:18:16.791Z,7.05
2019-02-14T19:20:50.118Z,7.05
2019-02-14T19:23:24.522Z,7.02
2019-02-14T19:25:58.020Z,6.94
2019-02-14T19:28:31.402Z,6.94
2019-02-14T19:31:04.824Z,6.88
2019-02-14T19:33:38.193Z,6.92
2019-02-14T19:36:11.589Z,6.90
2019-02-14T19:38:45.013Z,6.85
2019-02-14T19:41:25.157Z,6.84
2019-02-14T19:43:53.629Z,6.79
2019-02-14T19:46:26.958Z,6.78
2019-02-14T19:49:00.409Z,6.72
2019-02-14T19:51:33.880Z,6.70
2019-02-14T19:54:07.251Z,6.66
2019-02-14T19:56:40.750Z,6.64
2019-02-14T19:59:14.214Z,6.61
2019-02-14T20:01:49.235Z,6.59
2019-02-14T20:04:22.695Z,6.56
2019-02-14T20:06:56.037Z,6.54
2019-02-14T20:09:29.454Z,6.52
2019-02-14T20:12:02.971Z,6.50
2019-02-14T20:14:36.388Z,6.45
2019-02-14T20:17:09.762Z,6.39
2019-02-14T20:19:43.212Z,6.35
2019-02-14T20:22:16.555Z,6.31
2019-02-14T20:24:50.058Z,6.27
2019-02-14T20:27:23.360Z,6.21
2019-02-14T20:29:56.783Z,6.13
2019-02-14T20:32:30.195Z,6.08
2019-02-14T20:35:04.227Z,6.06
2019-02-14T20:37:37.643Z,6.04
2019-02-14T20:40:11.268Z,6.01
2019-02-14T20:42:44.616Z,6.00
2019-02-14T20:45:18.022Z,5.95
2019-02-14T20:47:51.434Z,5.89
2019-02-14T20:50:24.822Z,5.84
2019-02-14T20:52:58.209Z,5.80
2019-02-14T20:55:31.638Z,5.77
2019-02-14T20:58:05.180Z,5.75
2019-02-14T21:00:38.691Z,5.74
2019-02-14T21:03:12.088Z,5.72
2019-02-14T21:05:45.585Z,5.71
2019-02-14T21:08:18.940Z,5.68
2019-02-14T21:10:52.431Z,5.64
2019-02-14T21:13:25.920Z,5.62
2019-02-14T21:15:59.574Z,5.59
2019-02-14T21:18:33.151Z,5.58
2019-02-14T21:21:06.814Z,5.56
2019-02-14T21:23:40.130Z,5.55
2019-02-14T21:26:14.133Z,5.55
2019-02-14T21:28:48.940Z,5.54
2019-02-14T21:31:22.461Z,5.52
2019-02-14T21:33:56.336Z,5.50
2019-02-14T21:36:30.097Z,5.46
2019-02-14T21:39:05.585Z,5.42
2019-02-14T21:41:39.035Z,5.36
2019-02-14T21:44:12.487Z,5.31
2019-02-14T21:46:45.849Z,5.31
2019-02-14T21:49:19.253Z,5.29
2019-02-14T21:51:52.643Z,5.25
2019-02-14T21:54:25.997Z,5.22
2019-02-14T21:56:59.328Z,5.20
2019-02-14T21:59:32.689Z,5.18
2019-02-14T22:02:06.770Z,5.15
2019-02-14T22:04:40.517Z,5.11
2019-02-14T22:07:13.886Z,5.09
2019-02-14T22:09:47.349Z,5.08
2019-02-14T22:12:38.955Z,5.05
2019-02-14T22:14:55.959Z,5.03
2019-02-14T22:17:29.398Z,5.00
2019-02-14T22:20:03.171Z,4.97
2019-02-14T22:22:36.655Z,4.96
2019-02-14T22:25:11.089Z,4.94
2019-02-14T22:27:44.552Z,4.90
2019-02-14T22:30:18.699Z,4.83
2019-02-14T22:32:52.097Z,4.78
2019-02-14T22:35:25.513Z,4.75
2019-02-14T22:37:58.974Z,4.73
2019-02-14T22:40:32.864Z,4.70
2019-02-14T22:43:06.184Z,4.67
2019-02-14T22:45:39.744Z,4.66
2019-02-14T22:48:13.139Z,4.65
2019-02-14T22:50:46.582Z,4.64
2019-02-14T22:53:20.091Z,4.62
2019-02-14T22:55:53.535Z,4.60
2019-02-14T22:58:26.857Z,4.60
2019-02-14T23:01:00.869Z,4.57
2019-02-14T23:03:34.509Z,4.53
2019-02-14T23:06:07.925Z,4.49
2019-02-14T23:08:41.255Z,4.47
2019-02-14T23:11:14.783Z,4.46
2019-02-14T23:13:48.104Z,4.45
2019-02-14T23:16:21.560Z,4.43
2019-02-14T23:18:54.915Z,4.39
2019-02-14T23:21:28.416Z,4.36
2019-02-14T23:24:01.876Z,4.34
2019-02-14T23:26:35.222Z,4.31
2019-02-14T23:29:09.073Z,4.27
2019-02-14T23:31:42.554Z,4.24
2019-02-14T23:34:15.969Z,4.20
2019-02-14T23:36:49.327Z,4.18
2019-02-14T23:39:22.647Z,4.19
2019-02-14T23:41:56.093Z,4.18
2019-02-14T23:44:29.449Z,4.16
2019-02-14T23:47:02.869Z,4.15
2019-02-14T23:49:36.207Z,4.14
2019-02-14T23:52:09.724Z,4.14
2019-02-14T23:54:43.124Z,4.13
2019-02-14T23:57:16.474Z,4.10
2019-02-14T23:59:49.850Z,4.05
